sensor_id;sensor_type;location;lat;lon;timestamp;P1;durP1;ratioP1;P2;durP2;ratioP2
50267;SDS011;36153;50.960;6.220;2024-02-21T00:00:24;12.82;;;5.38;;
50267;SDS011;36153;50.960;6.220;2024-02-21T00:02:26;16.10;;;5.05;;
50267;SDS011;36153;50.960;6.220;2024-02-21T00:04:26;14.30;;;4.85;;
50267;SDS011;36153;50.960;6.220;2024-02-21T00:06:26;11.98;;;5.20;;
50267;SDS011;36153;50.960;6.220;2024-02-21T00:08:26;13.27;;;4.30;;
50267;SDS011;36153;50.960;6.220;2024-02-21T00:10:30;11.75;;;5.13;;
50267;SDS011;36153;50.960;6.220;2024-02-21T00:12:32;11.73;;;5.22;;
50267;SDS011;36153;50.960;6.220;2024-02-21T00:14:32;12.32;;;4.68;;
50267;SDS011;36153;50.960;6.220;2024-02-21T00:16:33;12.23;;;5.10;;
50267;SDS011;36153;50.960;6.220;2024-02-21T00:18:33;10.43;;;4.40;;
50267;SDS011;36153;50.960;6.220;2024-02-21T00:20:33;19.77;;;4.68;;
50267;SDS011;36153;50.960;6.220;2024-02-21T00:22:33;11.98;;;5.20;;
50267;SDS011;36153;50.960;6.220;2024-02-21T00:24:34;12.70;;;5.20;;
50267;SDS011;36153;50.960;6.220;2024-02-21T00:26:34;9.60;;;4.03;;
50267;SDS011;36153;50.960;6.220;2024-02-21T00:28:34;14.70;;;5.28;;
50267;SDS011;36153;50.960;6.220;2024-02-21T00:30:34;12.47;;;4.70;;
50267;SDS011;36153;50.960;6.220;2024-02-21T00:32:35;13.77;;;5.32;;
50267;SDS011;36153;50.960;6.220;2024-02-21T00:34:35;13.25;;;4.78;;
50267;SDS011;36153;50.960;6.220;2024-02-21T00:36:36;13.20;;;5.45;;
50267;SDS011;36153;50.960;6.220;2024-02-21T00:38:37;14.85;;;5.43;;
50267;SDS011;36153;50.960;6.220;2024-02-21T00:40:37;12.45;;;4.80;;
50267;SDS011;36153;50.960;6.220;2024-02-21T00:42:37;11.43;;;4.53;;
50267;SDS011;36153;50.960;6.220;2024-02-21T00:44:39;13.23;;;4.88;;
50267;SDS011;36153;50.960;6.220;2024-02-21T00:46:39;12.23;;;4.55;;
50267;SDS011;36153;50.960;6.220;2024-02-21T00:48:39;12.25;;;4.78;;
50267;SDS011;36153;50.960;6.220;2024-02-21T00:50:40;11.68;;;5.35;;
50267;SDS011;36153;50.960;6.220;2024-02-21T00:52:40;15.98;;;5.05;;
50267;SDS011;36153;50.960;6.220;2024-02-21T00:54:41;12.50;;;4.93;;
50267;SDS011;36153;50.960;6.220;2024-02-21T00:56:41;10.45;;;4.68;;
50267;SDS011;36153;50.960;6.220;2024-02-21T00:58:43;10.48;;;4.90;;
50267;SDS011;36153;50.960;6.220;2024-02-21T01:00:43;8.63;;;4.25;;
50267;SDS011;36153;50.960;6.220;2024-02-21T01:02:44;13.45;;;5.22;;
50267;SDS011;36153;50.960;6.220;2024-02-21T01:04:44;10.20;;;4.97;;
50267;SDS011;36153;50.960;6.220;2024-02-21T01:06:45;14.98;;;5.88;;
50267;SDS011;36153;50.960;6.220;2024-02-21T01:08:48;11.07;;;4.83;;
50267;SDS011;36153;50.960;6.220;2024-02-21T01:10:49;11.05;;;5.03;;
50267;SDS011;36153;50.960;6.220;2024-02-21T01:12:49;14.05;;;5.90;;
50267;SDS011;36153;50.960;6.220;2024-02-21T01:14:49;12.27;;;5.55;;
50267;SDS011;36153;50.960;6.220;2024-02-21T01:16:52;13.05;;;4.93;;
50267;SDS011;36153;50.960;6.220;2024-02-21T01:18:54;10.48;;;5.15;;
50267;SDS011;36153;50.960;6.220;2024-02-21T01:20:54;10.95;;;5.15;;
50267;SDS011;36153;50.960;6.220;2024-02-21T01:22:54;13.27;;;4.88;;
50267;SDS011;36153;50.960;6.220;2024-02-21T01:24:54;13.77;;;5.63;;
50267;SDS011;36153;50.960;6.220;2024-02-21T01:26:55;14.48;;;5.97;;
50267;SDS011;36153;50.960;6.220;2024-02-21T01:28:55;12.80;;;4.53;;
50267;SDS011;36153;50.960;6.220;2024-02-21T01:30:56;11.70;;;5.57;;
50267;SDS011;36153;50.960;6.220;2024-02-21T01:32:57;18.55;;;5.82;;
50267;SDS011;36153;50.960;6.220;2024-02-21T01:34:57;12.93;;;5.35;;
50267;SDS011;36153;50.960;6.220;2024-02-21T01:36:58;12.60;;;5.72;;
50267;SDS011;36153;50.960;6.220;2024-02-21T01:38:59;16.35;;;6.68;;
50267;SDS011;36153;50.960;6.220;2024-02-21T01:40:59;17.35;;;5.43;;
50267;SDS011;36153;50.960;6.220;2024-02-21T01:43:00;13.02;;;5.18;;
50267;SDS011;36153;50.960;6.220;2024-02-21T01:45:00;12.18;;;5.00;;
50267;SDS011;36153;50.960;6.220;2024-02-21T01:47:01;11.25;;;5.05;;
50267;SDS011;36153;50.960;6.220;2024-02-21T01:49:02;9.05;;;4.50;;
50267;SDS011;36153;50.960;6.220;2024-02-21T01:51:03;14.10;;;5.35;;
50267;SDS011;36153;50.960;6.220;2024-02-21T01:53:04;13.18;;;5.35;;
50267;SDS011;36153;50.960;6.220;2024-02-21T01:55:05;14.27;;;5.68;;
50267;SDS011;36153;50.960;6.220;2024-02-21T01:57:06;14.57;;;4.63;;
50267;SDS011;36153;50.960;6.220;2024-02-21T01:59:07;7.95;;;4.68;;
50267;SDS011;36153;50.960;6.220;2024-02-21T02:01:08;11.48;;;5.75;;
50267;SDS011;36153;50.960;6.220;2024-02-21T02:03:10;12.93;;;5.30;;
50267;SDS011;36153;50.960;6.220;2024-02-21T02:05:17;10.80;;;4.85;;
50267;SDS011;36153;50.960;6.220;2024-02-21T02:07:21;13.70;;;4.38;;
50267;SDS011;36153;50.960;6.220;2024-02-21T02:09:21;8.80;;;4.60;;
50267;SDS011;36153;50.960;6.220;2024-02-21T02:11:21;12.02;;;4.90;;
50267;SDS011;36153;50.960;6.220;2024-02-21T02:13:22;13.20;;;4.78;;
50267;SDS011;36153;50.960;6.220;2024-02-21T02:15:22;12.43;;;4.43;;
50267;SDS011;36153;50.960;6.220;2024-02-21T02:17:22;9.23;;;4.43;;
50267;SDS011;36153;50.960;6.220;2024-02-21T02:19:24;10.02;;;4.50;;
50267;SDS011;36153;50.960;6.220;2024-02-21T02:21:32;13.60;;;5.22;;
50267;SDS011;36153;50.960;6.220;2024-02-21T02:23:35;11.50;;;4.85;;
50267;SDS011;36153;50.960;6.220;2024-02-21T02:25:36;13.80;;;4.95;;
50267;SDS011;36153;50.960;6.220;2024-02-21T02:27:43;10.75;;;5.03;;
50267;SDS011;36153;50.960;6.220;2024-02-21T02:29:45;7.68;;;4.45;;
50267;SDS011;36153;50.960;6.220;2024-02-21T02:31:45;13.60;;;4.90;;
50267;SDS011;36153;50.960;6.220;2024-02-21T02:33:45;11.18;;;4.00;;
50267;SDS011;36153;50.960;6.220;2024-02-21T02:35:48;11.70;;;4.63;;
50267;SDS011;36153;50.960;6.220;2024-02-21T02:37:49;11.18;;;5.20;;
50267;SDS011;36153;50.960;6.220;2024-02-21T02:39:50;14.05;;;5.45;;
50267;SDS011;36153;50.960;6.220;2024-02-21T02:41:50;11.68;;;4.90;;
50267;SDS011;36153;50.960;6.220;2024-02-21T02:43:50;11.77;;;4.40;;
50267;SDS011;36153;50.960;6.220;2024-02-21T02:45:50;12.55;;;4.60;;
50267;SDS011;36153;50.960;6.220;2024-02-21T02:47:52;10.85;;;4.35;;
50267;SDS011;36153;50.960;6.220;2024-02-21T02:49:59;9.55;;;4.40;;
50267;SDS011;36153;50.960;6.220;2024-02-21T02:51:59;11.90;;;5.13;;
50267;SDS011;36153;50.960;6.220;2024-02-21T02:54:00;11.88;;;4.82;;
50267;SDS011;36153;50.960;6.220;2024-02-21T02:56:00;9.87;;;4.50;;
50267;SDS011;36153;50.960;6.220;2024-02-21T02:58:01;11.63;;;3.95;;
50267;SDS011;36153;50.960;6.220;2024-02-21T03:00:01;12.32;;;4.15;;
50267;SDS011;36153;50.960;6.220;2024-02-21T03:02:02;11.85;;;4.32;;
50267;SDS011;36153;50.960;6.220;2024-02-21T03:04:02;8.63;;;4.40;;
50267;SDS011;36153;50.960;6.220;2024-02-21T03:06:03;11.23;;;4.20;;
50267;SDS011;36153;50.960;6.220;2024-02-21T03:08:05;9.40;;;4.10;;
50267;SDS011;36153;50.960;6.220;2024-02-21T03:10:08;16.40;;;4.45;;
50267;SDS011;36153;50.960;6.220;2024-02-21T03:12:09;12.73;;;4.60;;
50267;SDS011;36153;50.960;6.220;2024-02-21T03:14:10;10.98;;;4.18;;
50267;SDS011;36153;50.960;6.220;2024-02-21T03:16:13;9.82;;;4.35;;
50267;SDS011;36153;50.960;6.220;2024-02-21T03:18:23;12.95;;;4.18;;
50267;SDS011;36153;50.960;6.220;2024-02-21T03:20:24;8.77;;;4.32;;
50267;SDS011;36153;50.960;6.220;2024-02-21T03:22:25;11.02;;;4.13;;
50267;SDS011;36153;50.960;6.220;2024-02-21T03:24:25;13.10;;;4.45;;
50267;SDS011;36153;50.960;6.220;2024-02-21T03:26:30;10.80;;;4.30;;
50267;SDS011;36153;50.960;6.220;2024-02-21T03:28:31;9.52;;;4.25;;
50267;SDS011;36153;50.960;6.220;2024-02-21T03:30:31;13.20;;;4.18;;
50267;SDS011;36153;50.960;6.220;2024-02-21T03:32:32;11.65;;;4.35;;
50267;SDS011;36153;50.960;6.220;2024-02-21T03:34:33;10.90;;;4.10;;
50267;SDS011;36153;50.960;6.220;2024-02-21T03:36:33;12.15;;;5.03;;
50267;SDS011;36153;50.960;6.220;2024-02-21T03:38:34;14.48;;;5.15;;
50267;SDS011;36153;50.960;6.220;2024-02-21T03:40:34;11.82;;;4.63;;
50267;SDS011;36153;50.960;6.220;2024-02-21T03:42:37;9.63;;;4.55;;
50267;SDS011;36153;50.960;6.220;2024-02-21T03:44:37;10.18;;;4.47;;
50267;SDS011;36153;50.960;6.220;2024-02-21T03:46:38;16.63;;;4.38;;
50267;SDS011;36153;50.960;6.220;2024-02-21T03:48:40;11.02;;;4.82;;
50267;SDS011;36153;50.960;6.220;2024-02-21T03:50:40;8.23;;;4.13;;
50267;SDS011;36153;50.960;6.220;2024-02-21T03:52:40;12.05;;;4.00;;
50267;SDS011;36153;50.960;6.220;2024-02-21T03:54:41;8.95;;;3.67;;
50267;SDS011;36153;50.960;6.220;2024-02-21T03:56:41;11.20;;;4.40;;
50267;SDS011;36153;50.960;6.220;2024-02-21T03:58:42;14.07;;;5.20;;
50267;SDS011;36153;50.960;6.220;2024-02-21T04:00:42;9.82;;;3.90;;
50267;SDS011;36153;50.960;6.220;2024-02-21T04:02:42;11.05;;;4.53;;
50267;SDS011;36153;50.960;6.220;2024-02-21T04:04:43;11.38;;;3.97;;
50267;SDS011;36153;50.960;6.220;2024-02-21T04:06:49;11.48;;;4.55;;
50267;SDS011;36153;50.960;6.220;2024-02-21T04:08:51;9.70;;;4.28;;
50267;SDS011;36153;50.960;6.220;2024-02-21T04:10:51;11.50;;;4.95;;
50267;SDS011;36153;50.960;6.220;2024-02-21T04:12:51;10.30;;;3.90;;
50267;SDS011;36153;50.960;6.220;2024-02-21T04:14:52;9.00;;;4.38;;
50267;SDS011;36153;50.960;6.220;2024-02-21T04:16:52;10.52;;;4.25;;
50267;SDS011;36153;50.960;6.220;2024-02-21T04:18:52;8.57;;;4.03;;
50267;SDS011;36153;50.960;6.220;2024-02-21T04:20:54;9.45;;;4.30;;
50267;SDS011;36153;50.960;6.220;2024-02-21T04:22:55;8.55;;;4.60;;
50267;SDS011;36153;50.960;6.220;2024-02-21T04:24:56;12.98;;;4.22;;
50267;SDS011;36153;50.960;6.220;2024-02-21T04:26:56;6.85;;;3.67;;
50267;SDS011;36153;50.960;6.220;2024-02-21T04:29:03;12.32;;;5.00;;
50267;SDS011;36153;50.960;6.220;2024-02-21T04:31:03;11.27;;;4.93;;
50267;SDS011;36153;50.960;6.220;2024-02-21T04:33:04;7.97;;;4.13;;
50267;SDS011;36153;50.960;6.220;2024-02-21T04:35:04;10.10;;;4.80;;
50267;SDS011;36153;50.960;6.220;2024-02-21T04:37:05;11.88;;;4.43;;
50267;SDS011;36153;50.960;6.220;2024-02-21T04:39:05;10.70;;;3.95;;
50267;SDS011;36153;50.960;6.220;2024-02-21T04:41:06;9.50;;;3.80;;
50267;SDS011;36153;50.960;6.220;2024-02-21T04:43:06;14.40;;;4.05;;
50267;SDS011;36153;50.960;6.220;2024-02-21T04:45:07;10.95;;;3.58;;
50267;SDS011;36153;50.960;6.220;2024-02-21T04:47:07;10.70;;;4.55;;
50267;SDS011;36153;50.960;6.220;2024-02-21T04:49:08;6.88;;;3.50;;
50267;SDS011;36153;50.960;6.220;2024-02-21T04:51:08;8.15;;;3.70;;
50267;SDS011;36153;50.960;6.220;2024-02-21T04:53:09;9.90;;;4.50;;
50267;SDS011;36153;50.960;6.220;2024-02-21T04:55:09;9.05;;;4.13;;
50267;SDS011;36153;50.960;6.220;2024-02-21T04:57:10;7.78;;;3.60;;
50267;SDS011;36153;50.960;6.220;2024-02-21T04:59:10;8.65;;;4.07;;
50267;SDS011;36153;50.960;6.220;2024-02-21T05:01:10;12.20;;;4.68;;
50267;SDS011;36153;50.960;6.220;2024-02-21T05:03:12;7.55;;;3.28;;
50267;SDS011;36153;50.960;6.220;2024-02-21T05:05:12;8.68;;;3.50;;
50267;SDS011;36153;50.960;6.220;2024-02-21T05:07:15;8.30;;;3.72;;
50267;SDS011;36153;50.960;6.220;2024-02-21T05:09:17;7.35;;;3.50;;
50267;SDS011;36153;50.960;6.220;2024-02-21T05:11:17;8.32;;;3.08;;
50267;SDS011;36153;50.960;6.220;2024-02-21T05:13:18;8.90;;;3.50;;
50267;SDS011;36153;50.960;6.220;2024-02-21T05:15:18;7.97;;;3.97;;
50267;SDS011;36153;50.960;6.220;2024-02-21T05:17:18;10.30;;;3.60;;
50267;SDS011;36153;50.960;6.220;2024-02-21T05:19:19;7.85;;;3.35;;
50267;SDS011;36153;50.960;6.220;2024-02-21T05:21:19;7.65;;;3.53;;
50267;SDS011;36153;50.960;6.220;2024-02-21T05:23:21;9.48;;;3.08;;
50267;SDS011;36153;50.960;6.220;2024-02-21T05:25:22;8.65;;;3.08;;
50267;SDS011;36153;50.960;6.220;2024-02-21T05:27:23;6.28;;;3.35;;
50267;SDS011;36153;50.960;6.220;2024-02-21T05:29:23;7.88;;;3.53;;
50267;SDS011;36153;50.960;6.220;2024-02-21T05:31:23;10.00;;;3.55;;
50267;SDS011;36153;50.960;6.220;2024-02-21T05:33:24;6.93;;;2.78;;
50267;SDS011;36153;50.960;6.220;2024-02-21T05:35:26;7.03;;;3.38;;
50267;SDS011;36153;50.960;6.220;2024-02-21T05:37:27;8.88;;;2.97;;
50267;SDS011;36153;50.960;6.220;2024-02-21T05:39:28;7.40;;;3.20;;
50267;SDS011;36153;50.960;6.220;2024-02-21T05:41:29;4.72;;;2.45;;
50267;SDS011;36153;50.960;6.220;2024-02-21T05:43:29;7.67;;;3.07;;
50267;SDS011;36153;50.960;6.220;2024-02-21T05:45:31;5.78;;;3.22;;
50267;SDS011;36153;50.960;6.220;2024-02-21T05:47:31;8.93;;;3.20;;
50267;SDS011;36153;50.960;6.220;2024-02-21T05:49:33;8.73;;;3.00;;
50267;SDS011;36153;50.960;6.220;2024-02-21T05:51:33;7.63;;;2.90;;
50267;SDS011;36153;50.960;6.220;2024-02-21T05:53:34;6.35;;;2.92;;
50267;SDS011;36153;50.960;6.220;2024-02-21T05:55:38;7.80;;;2.75;;
50267;SDS011;36153;50.960;6.220;2024-02-21T05:57:38;10.30;;;3.13;;
50267;SDS011;36153;50.960;6.220;2024-02-21T05:59:39;6.15;;;2.95;;
50267;SDS011;36153;50.960;6.220;2024-02-21T06:01:40;9.50;;;2.95;;
50267;SDS011;36153;50.960;6.220;2024-02-21T06:03:40;7.20;;;2.97;;
50267;SDS011;36153;50.960;6.220;2024-02-21T06:05:41;8.63;;;3.08;;
50267;SDS011;36153;50.960;6.220;2024-02-21T06:07:41;12.35;;;3.53;;
50267;SDS011;36153;50.960;6.220;2024-02-21T06:09:42;6.70;;;3.17;;
50267;SDS011;36153;50.960;6.220;2024-02-21T06:11:42;7.43;;;2.97;;
50267;SDS011;36153;50.960;6.220;2024-02-21T06:13:46;6.78;;;2.95;;
50267;SDS011;36153;50.960;6.220;2024-02-21T06:15:47;9.75;;;3.30;;
50267;SDS011;36153;50.960;6.220;2024-02-21T06:17:47;7.13;;;3.03;;
50267;SDS011;36153;50.960;6.220;2024-02-21T06:19:48;6.05;;;3.03;;
50267;SDS011;36153;50.960;6.220;2024-02-21T06:21:48;6.10;;;2.83;;
50267;SDS011;36153;50.960;6.220;2024-02-21T06:23:48;10.65;;;3.15;;
50267;SDS011;36153;50.960;6.220;2024-02-21T06:25:49;10.32;;;3.58;;
50267;SDS011;36153;50.960;6.220;2024-02-21T06:27:49;8.55;;;3.00;;
50267;SDS011;36153;50.960;6.220;2024-02-21T06:29:50;10.38;;;3.40;;
50267;SDS011;36153;50.960;6.220;2024-02-21T06:31:50;7.60;;;2.97;;
50267;SDS011;36153;50.960;6.220;2024-02-21T06:33:51;9.63;;;3.50;;
50267;SDS011;36153;50.960;6.220;2024-02-21T06:35:52;7.78;;;2.80;;
50267;SDS011;36153;50.960;6.220;2024-02-21T06:37:53;8.48;;;3.13;;
50267;SDS011;36153;50.960;6.220;2024-02-21T06:39:54;8.80;;;2.80;;
50267;SDS011;36153;50.960;6.220;2024-02-21T06:41:54;10.45;;;2.78;;
50267;SDS011;36153;50.960;6.220;2024-02-21T06:43:54;7.30;;;3.00;;
50267;SDS011;36153;50.960;6.220;2024-02-21T06:45:55;7.85;;;2.90;;
50267;SDS011;36153;50.960;6.220;2024-02-21T06:47:56;9.95;;;2.90;;
50267;SDS011;36153;50.960;6.220;2024-02-21T06:49:58;9.02;;;3.15;;
50267;SDS011;36153;50.960;6.220;2024-02-21T06:51:59;7.35;;;2.60;;
50267;SDS011;36153;50.960;6.220;2024-02-21T06:54:00;6.38;;;2.40;;
50267;SDS011;36153;50.960;6.220;2024-02-21T06:56:01;7.30;;;2.58;;
50267;SDS011;36153;50.960;6.220;2024-02-21T06:58:02;7.03;;;2.50;;
50267;SDS011;36153;50.960;6.220;2024-02-21T07:00:03;7.65;;;2.70;;
50267;SDS011;36153;50.960;6.220;2024-02-21T07:02:08;7.30;;;3.15;;
50267;SDS011;36153;50.960;6.220;2024-02-21T07:04:08;9.25;;;2.75;;
50267;SDS011;36153;50.960;6.220;2024-02-21T07:06:08;8.93;;;2.55;;
50267;SDS011;36153;50.960;6.220;2024-02-21T07:08:08;3.90;;;1.90;;
50267;SDS011;36153;50.960;6.220;2024-02-21T07:10:09;4.82;;;2.53;;
50267;SDS011;36153;50.960;6.220;2024-02-21T07:12:11;8.90;;;2.70;;
50267;SDS011;36153;50.960;6.220;2024-02-21T07:14:11;6.15;;;2.53;;
50267;SDS011;36153;50.960;6.220;2024-02-21T07:16:13;7.38;;;3.25;;
50267;SDS011;36153;50.960;6.220;2024-02-21T07:18:13;8.85;;;2.88;;
50267;SDS011;36153;50.960;6.220;2024-02-21T07:20:13;5.38;;;2.80;;
50267;SDS011;36153;50.960;6.220;2024-02-21T07:22:14;7.85;;;2.92;;
50267;SDS011;36153;50.960;6.220;2024-02-21T07:24:17;6.43;;;2.88;;
50267;SDS011;36153;50.960;6.220;2024-02-21T07:26:18;8.07;;;3.03;;
50267;SDS011;36153;50.960;6.220;2024-02-21T07:28:18;7.82;;;3.45;;
50267;SDS011;36153;50.960;6.220;2024-02-21T07:30:19;8.25;;;3.45;;
50267;SDS011;36153;50.960;6.220;2024-02-21T07:32:19;8.63;;;3.08;;
50267;SDS011;36153;50.960;6.220;2024-02-21T07:34:20;11.48;;;3.75;;
50267;SDS011;36153;50.960;6.220;2024-02-21T07:38:33;7.95;;;3.03;;
50267;SDS011;36153;50.960;6.220;2024-02-21T07:40:33;10.55;;;3.58;;
50267;SDS011;36153;50.960;6.220;2024-02-21T07:42:33;9.38;;;2.72;;
50267;SDS011;36153;50.960;6.220;2024-02-21T07:44:34;5.75;;;2.67;;
50267;SDS011;36153;50.960;6.220;2024-02-21T07:46:34;8.52;;;3.17;;
50267;SDS011;36153;50.960;6.220;2024-02-21T07:48:35;8.43;;;2.88;;
50267;SDS011;36153;50.960;6.220;2024-02-21T07:50:35;7.68;;;3.33;;
50267;SDS011;36153;50.960;6.220;2024-02-21T07:52:35;6.13;;;2.88;;
50267;SDS011;36153;50.960;6.220;2024-02-21T07:54:35;6.85;;;2.75;;
50267;SDS011;36153;50.960;6.220;2024-02-21T07:56:36;7.43;;;3.05;;
50267;SDS011;36153;50.960;6.220;2024-02-21T07:58:37;8.40;;;3.17;;
50267;SDS011;36153;50.960;6.220;2024-02-21T08:00:38;8.38;;;2.90;;
50267;SDS011;36153;50.960;6.220;2024-02-21T08:02:38;6.10;;;3.03;;
50267;SDS011;36153;50.960;6.220;2024-02-21T08:04:39;5.65;;;2.70;;
50267;SDS011;36153;50.960;6.220;2024-02-21T08:06:39;4.97;;;2.53;;
50267;SDS011;36153;50.960;6.220;2024-02-21T08:08:39;7.22;;;2.60;;
50267;SDS011;36153;50.960;6.220;2024-02-21T08:10:40;7.93;;;3.08;;
50267;SDS011;36153;50.960;6.220;2024-02-21T08:12:40;4.82;;;2.55;;
50267;SDS011;36153;50.960;6.220;2024-02-21T08:14:41;7.07;;;2.47;;
50267;SDS011;36153;50.960;6.220;2024-02-21T08:16:41;9.77;;;2.78;;
50267;SDS011;36153;50.960;6.220;2024-02-21T08:18:43;6.25;;;3.17;;
50267;SDS011;36153;50.960;6.220;2024-02-21T08:20:44;4.20;;;2.45;;
50267;SDS011;36153;50.960;6.220;2024-02-21T08:22:44;7.63;;;2.92;;
50267;SDS011;36153;50.960;6.220;2024-02-21T08:24:44;7.20;;;2.65;;
50267;SDS011;36153;50.960;6.220;2024-02-21T08:26:45;6.22;;;2.05;;
50267;SDS011;36153;50.960;6.220;2024-02-21T08:28:45;6.30;;;2.60;;
50267;SDS011;36153;50.960;6.220;2024-02-21T08:30:47;7.53;;;2.38;;
50267;SDS011;36153;50.960;6.220;2024-02-21T08:32:48;7.00;;;2.60;;
50267;SDS011;36153;50.960;6.220;2024-02-21T08:34:48;9.20;;;2.80;;
50267;SDS011;36153;50.960;6.220;2024-02-21T08:36:49;3.78;;;2.08;;
50267;SDS011;36153;50.960;6.220;2024-02-21T08:38:50;5.55;;;2.20;;
50267;SDS011;36153;50.960;6.220;2024-02-21T08:40:50;7.03;;;2.88;;
50267;SDS011;36153;50.960;6.220;2024-02-21T08:42:50;6.28;;;2.38;;
50267;SDS011;36153;50.960;6.220;2024-02-21T08:44:51;6.18;;;2.25;;
50267;SDS011;36153;50.960;6.220;2024-02-21T08:46:52;9.13;;;2.97;;
50267;SDS011;36153;50.960;6.220;2024-02-21T08:48:53;4.97;;;1.88;;
50267;SDS011;36153;50.960;6.220;2024-02-21T08:50:55;6.68;;;1.80;;
50267;SDS011;36153;50.960;6.220;2024-02-21T08:52:56;5.32;;;2.38;;
50267;SDS011;36153;50.960;6.220;2024-02-21T08:54:59;5.50;;;1.63;;
50267;SDS011;36153;50.960;6.220;2024-02-21T08:59:00;4.83;;;2.13;;
50267;SDS011;36153;50.960;6.220;2024-02-21T09:01:00;3.67;;;2.15;;
50267;SDS011;36153;50.960;6.220;2024-02-21T09:03:01;4.82;;;1.98;;
50267;SDS011;36153;50.960;6.220;2024-02-21T09:05:02;5.93;;;2.45;;
50267;SDS011;36153;50.960;6.220;2024-02-21T09:07:05;5.90;;;1.90;;
50267;SDS011;36153;50.960;6.220;2024-02-21T09:09:05;3.70;;;1.60;;
50267;SDS011;36153;50.960;6.220;2024-02-21T09:11:08;3.53;;;1.70;;
50267;SDS011;36153;50.960;6.220;2024-02-21T09:13:08;3.72;;;1.92;;
50267;SDS011;36153;50.960;6.220;2024-02-21T09:15:09;5.28;;;2.08;;
50267;SDS011;36153;50.960;6.220;2024-02-21T09:17:10;7.53;;;2.63;;
50267;SDS011;36153;50.960;6.220;2024-02-21T09:19:12;4.78;;;1.50;;
50267;SDS011;36153;50.960;6.220;2024-02-21T09:21:12;9.80;;;2.75;;
50267;SDS011;36153;50.960;6.220;2024-02-21T09:23:14;4.47;;;2.08;;
50267;SDS011;36153;50.960;6.220;2024-02-21T09:25:14;5.05;;;1.80;;
50267;SDS011;36153;50.960;6.220;2024-02-21T09:27:15;5.20;;;2.35;;
50267;SDS011;36153;50.960;6.220;2024-02-21T09:29:15;4.40;;;2.03;;
50267;SDS011;36153;50.960;6.220;2024-02-21T09:31:16;4.53;;;2.08;;
50267;SDS011;36153;50.960;6.220;2024-02-21T09:33:16;8.20;;;2.15;;
50267;SDS011;36153;50.960;6.220;2024-02-21T09:35:17;5.63;;;2.55;;
50267;SDS011;36153;50.960;6.220;2024-02-21T09:37:17;3.88;;;1.88;;
50267;SDS011;36153;50.960;6.220;2024-02-21T09:39:17;5.15;;;2.10;;
50267;SDS011;36153;50.960;6.220;2024-02-21T09:41:18;3.33;;;1.98;;
50267;SDS011;36153;50.960;6.220;2024-02-21T09:43:26;5.18;;;1.88;;
50267;SDS011;36153;50.960;6.220;2024-02-21T09:45:26;4.70;;;1.95;;
50267;SDS011;36153;50.960;6.220;2024-02-21T09:50:12;6.20;;;1.70;;
50267;SDS011;36153;50.960;6.220;2024-02-21T09:52:17;4.38;;;1.98;;
50267;SDS011;36153;50.960;6.220;2024-02-21T09:54:19;5.13;;;2.88;;
50267;SDS011;36153;50.960;6.220;2024-02-21T09:56:20;4.78;;;2.15;;
50267;SDS011;36153;50.960;6.220;2024-02-21T09:58:21;8.50;;;2.35;;
50267;SDS011;36153;50.960;6.220;2024-02-21T10:00:24;4.60;;;1.88;;
50267;SDS011;36153;50.960;6.220;2024-02-21T10:02:24;6.47;;;2.22;;
50267;SDS011;36153;50.960;6.220;2024-02-21T10:04:24;7.50;;;2.05;;
50267;SDS011;36153;50.960;6.220;2024-02-21T10:06:26;5.85;;;2.03;;
50267;SDS011;36153;50.960;6.220;2024-02-21T10:08:26;8.55;;;2.75;;
50267;SDS011;36153;50.960;6.220;2024-02-21T10:10:27;3.08;;;1.92;;
50267;SDS011;36153;50.960;6.220;2024-02-21T10:12:29;6.28;;;2.25;;
50267;SDS011;36153;50.960;6.220;2024-02-21T10:14:30;7.43;;;2.55;;
50267;SDS011;36153;50.960;6.220;2024-02-21T10:16:30;4.10;;;1.95;;
50267;SDS011;36153;50.960;6.220;2024-02-21T10:18:30;5.32;;;2.22;;
50267;SDS011;36153;50.960;6.220;2024-02-21T10:20:31;3.35;;;1.63;;
50267;SDS011;36153;50.960;6.220;2024-02-21T10:22:31;5.85;;;2.00;;
50267;SDS011;36153;50.960;6.220;2024-02-21T10:24:36;3.70;;;1.75;;
50267;SDS011;36153;50.960;6.220;2024-02-21T10:26:42;6.50;;;2.00;;
50267;SDS011;36153;50.960;6.220;2024-02-21T10:28:42;5.68;;;1.88;;
50267;SDS011;36153;50.960;6.220;2024-02-21T10:30:50;7.43;;;2.00;;
50267;SDS011;36153;50.960;6.220;2024-02-21T10:32:55;6.25;;;2.45;;
50267;SDS011;36153;50.960;6.220;2024-02-21T10:35:02;3.60;;;2.13;;
50267;SDS011;36153;50.960;6.220;2024-02-21T10:37:07;4.53;;;1.90;;
50267;SDS011;36153;50.960;6.220;2024-02-21T10:39:08;8.20;;;3.45;;
50267;SDS011;36153;50.960;6.220;2024-02-21T10:41:09;4.60;;;2.15;;
50267;SDS011;36153;50.960;6.220;2024-02-21T10:43:14;6.15;;;2.35;;
50267;SDS011;36153;50.960;6.220;2024-02-21T10:45:15;4.68;;;2.20;;
50267;SDS011;36153;50.960;6.220;2024-02-21T10:47:16;5.30;;;2.75;;
50267;SDS011;36153;50.960;6.220;2024-02-21T10:49:25;3.53;;;1.73;;
50267;SDS011;36153;50.960;6.220;2024-02-21T10:51:30;3.92;;;2.00;;
50267;SDS011;36153;50.960;6.220;2024-02-21T10:55:51;4.78;;;2.67;;
50267;SDS011;36153;50.960;6.220;2024-02-21T10:57:58;6.63;;;1.80;;
50267;SDS011;36153;50.960;6.220;2024-02-21T11:00:00;3.88;;;2.22;;
50267;SDS011;36153;50.960;6.220;2024-02-21T11:02:02;5.68;;;1.77;;
50267;SDS011;36153;50.960;6.220;2024-02-21T11:04:04;6.88;;;2.03;;
50267;SDS011;36153;50.960;6.220;2024-02-21T11:06:06;6.45;;;2.28;;
50267;SDS011;36153;50.960;6.220;2024-02-21T11:08:09;4.95;;;2.00;;
50267;SDS011;36153;50.960;6.220;2024-02-21T11:10:25;7.40;;;2.55;;
50267;SDS011;36153;50.960;6.220;2024-02-21T11:12:26;5.90;;;2.13;;
50267;SDS011;36153;50.960;6.220;2024-02-21T11:14:27;4.93;;;2.28;;
50267;SDS011;36153;50.960;6.220;2024-02-21T11:16:28;7.03;;;2.33;;
50267;SDS011;36153;50.960;6.220;2024-02-21T11:18:37;5.43;;;2.35;;
50267;SDS011;36153;50.960;6.220;2024-02-21T11:20:37;5.00;;;2.30;;
50267;SDS011;36153;50.960;6.220;2024-02-21T11:22:41;4.18;;;2.20;;
50267;SDS011;36153;50.960;6.220;2024-02-21T11:24:42;5.38;;;2.08;;
50267;SDS011;36153;50.960;6.220;2024-02-21T11:26:43;6.43;;;1.92;;
50267;SDS011;36153;50.960;6.220;2024-02-21T11:28:43;8.43;;;2.58;;
50267;SDS011;36153;50.960;6.220;2024-02-21T11:30:44;7.20;;;2.90;;
50267;SDS011;36153;50.960;6.220;2024-02-21T11:32:45;6.30;;;2.47;;
50267;SDS011;36153;50.960;6.220;2024-02-21T11:37:03;6.07;;;2.20;;
50267;SDS011;36153;50.960;6.220;2024-02-21T11:39:17;4.50;;;2.65;;
50267;SDS011;36153;50.960;6.220;2024-02-21T11:41:21;6.53;;;2.85;;
50267;SDS011;36153;50.960;6.220;2024-02-21T11:43:22;4.65;;;2.40;;
50267;SDS011;36153;50.960;6.220;2024-02-21T11:45:25;4.20;;;2.08;;
50267;SDS011;36153;50.960;6.220;2024-02-21T11:47:27;4.50;;;2.33;;
50267;SDS011;36153;50.960;6.220;2024-02-21T11:49:28;5.78;;;2.13;;
50267;SDS011;36153;50.960;6.220;2024-02-21T11:51:29;5.93;;;2.92;;
50267;SDS011;36153;50.960;6.220;2024-02-21T11:53:30;5.00;;;2.10;;
50267;SDS011;36153;50.960;6.220;2024-02-21T11:55:30;7.75;;;2.38;;
50267;SDS011;36153;50.960;6.220;2024-02-21T11:57:31;4.95;;;2.25;;
50267;SDS011;36153;50.960;6.220;2024-02-21T11:59:32;5.25;;;1.92;;
50267;SDS011;36153;50.960;6.220;2024-02-21T12:01:34;4.32;;;2.42;;
50267;SDS011;36153;50.960;6.220;2024-02-21T12:03:34;4.55;;;1.95;;
50267;SDS011;36153;50.960;6.220;2024-02-21T12:05:35;4.18;;;2.05;;
50267;SDS011;36153;50.960;6.220;2024-02-21T12:07:36;3.58;;;1.73;;
50267;SDS011;36153;50.960;6.220;2024-02-21T12:11:41;6.43;;;2.25;;
50267;SDS011;36153;50.960;6.220;2024-02-21T12:13:42;3.40;;;1.63;;
50267;SDS011;36153;50.960;6.220;2024-02-21T12:15:42;5.43;;;2.20;;
50267;SDS011;36153;50.960;6.220;2024-02-21T12:17:50;3.17;;;1.77;;
50267;SDS011;36153;50.960;6.220;2024-02-21T12:19:51;4.38;;;1.65;;